To NAV CANADA Home Page Login to a new session Search on AWWS site Feedback and Comments Disclaimer Vers la page française équivalente Tips FAQ What's new on the site To the Forecasts and Observations / NOTAM section To "File a Flight Plan" website Publications and other links Update of the User's profile FIC Telephone Numbers My Weather Data Folder Route Weather Data Regional Weather Data Local Weather Data To the Forecasts and Observations / NOTAM section
Request Generated 02/23/2017 at 20:46:51 UTC . Weather information available at that time is displayed.

METAR/TAF

TORONTO/BILLY BISHOP TORONTO CITY AIRPORT/ON    (show WxCam)

METAR CYTZ 232000Z AUTO 29016G23KT 9SM CLR 17/07 A2967 RMK PRESRR
SLP051 DENSITY ALT 800FT=
METAR CYTZ 231900Z AUTO 26015G20KT 9SM CLR 18/07 A2964 RMK SLP038
DENSITY ALT 900FT=
SPECI CYTZ 231838Z AUTO 27015G20KT 9SM CLR 18/08 A2963 RMK WSHFT AT
1828Z SLP036 DENSITY ALT 900FT=
METAR CYTZ 231800Z AUTO 21012G17KT 9SM FEW060 10/07 A2963 RMK SLP036=

TAF CYTZ 231940Z 2320/2420 26012G22KT P6SM FEW040
BECMG 2320/2322 29012KT
BECMG 2323/2401 32010KT
FM240500 01008KT P6SM FEW007 TEMPO 2405/2407 5SM BR BKN007 OVC100
FM240700 03008KT 2SM -SHRA BR OVC005 TEMPO 2407/2411 6SM -SHRA BR
SCT005 OVC012 PROB30 2411/2416 1SM TSRA BR BKN004 OVC030CB
FM241600 10008KT 1SM -DZ BR OVC003
RMK FCST BASED ON AUTO OBS. NXT FCST BY 240200Z=
Your time UTC time
Weather data provided by Environment Canada and NAV CANADA